Time;durP1;ratioP1;P1;durP2;ratioP2;P2;SDS_P1;SDS_P2;PMS_P1;PMS_P2;Temp;Humidity;BMP_temperature;BMP_pressure;BME280_temperature;BME280_humidity;BME280_pressure;Samples;Min_cycle;Max_cycle;Signal;HPM_P1;HPM_P2
2022/11/30 00:01:18;;;;;;;27.63;13.07;;;6.20;99.90;;;;;;5010404;28;20447;-79
2022/11/30 00:03:45;;;;;;;24.53;12.53;;;6.20;99.90;;;;;;5008716;28;20510;-78
2022/11/30 00:06:13;;;;;;;21.83;12.10;;;6.20;99.90;;;;;;5009747;28;20506;-79
2022/11/30 00:08:39;;;;;;;26.53;12.63;;;6.20;99.90;;;;;;5009578;28;20424;-77
2022/11/30 00:11:13;;;;;;;20.60;12.10;;;6.30;99.90;;;;;;5008218;28;20531;-78
2022/11/30 00:13:39;;;;;;;24.27;13.10;;;6.20;99.90;;;;;;5009907;28;20412;-78
2022/11/30 00:16:05;;;;;;;22.37;12.37;;;6.20;99.90;;;;;;4992204;28;20848;-77
2022/11/30 00:18:31;;;;;;;27.27;13.30;;;6.20;99.90;;;;;;5008059;28;20201;-78
2022/11/30 00:21:01;;;;;;;33.90;14.33;;;6.30;99.90;;;;;;5008124;28;20459;-79
2022/11/30 00:23:34;;;;;;;27.40;13.33;;;6.40;99.90;;;;;;5007798;28;20228;-77
2022/11/30 00:26:04;;;;;;;28.00;13.20;;;6.20;99.90;;;;;;5009846;28;20436;-79
2022/11/30 00:28:31;;;;;;;28.00;12.83;;;6.30;99.90;;;;;;4992264;28;20429;-79
2022/11/30 00:30:58;;;;;;;26.50;12.50;;;6.30;99.90;;;;;;5008097;28;20440;-77
2022/11/30 00:33:24;;;;;;;23.70;10.90;;;6.20;99.90;;;;;;5009903;28;20424;-80
2022/11/30 00:36:04;;;;;;;21.50;11.93;;;6.20;99.90;;;;;;5009622;28;20426;-78
2022/11/30 00:38:32;;;;;;;20.80;11.57;;;6.10;99.90;;;;;;4976920;28;20216;-78
2022/11/30 00:40:58;;;;;;;17.50;9.80;;;6.20;99.90;;;;;;5009341;28;20532;-79
2022/11/30 00:43:23;;;;;;;19.27;10.30;;;6.10;99.90;;;;;;4975397;28;20531;-79
2022/11/30 00:45:49;;;;;;;11.97;8.13;;;6.20;99.90;;;;;;5008031;28;20443;-79
2022/11/30 00:48:14;;;;;;;13.37;8.23;;;6.10;99.90;;;;;;5009030;28;20239;-78
2022/11/30 00:50:40;;;;;;;18.70;8.80;;;6.10;99.90;;;;;;5007922;28;20299;-78
2022/11/30 00:53:06;;;;;;;16.80;8.57;;;6.10;99.90;;;;;;5007818;28;20189;-78
2022/11/30 00:55:32;;;;;;;14.57;8.90;;;6.20;99.90;;;;;;5007369;28;20200;-78
2022/11/30 00:57:58;;;;;;;17.90;7.50;;;6.10;99.90;;;;;;5009129;28;20642;-78
2022/11/30 01:00:26;;;;;;;15.30;8.60;;;6.10;99.90;;;;;;4991310;28;20439;-79
2022/11/30 01:02:56;;;;;;;13.33;8.40;;;6.10;99.90;;;;;;5007414;28;20454;-79
2022/11/30 01:05:21;;;;;;;22.40;8.50;;;6.20;99.90;;;;;;5008825;28;20880;-79
2022/11/30 01:07:47;;;;;;;17.83;8.70;;;6.20;99.90;;;;;;4991137;28;20433;-78
2022/11/30 01:10:12;;;;;;;16.67;8.67;;;6.20;99.90;;;;;;5007437;28;20197;-78
2022/11/30 01:12:38;;;;;;;17.60;9.57;;;6.20;99.90;;;;;;5007428;28;20385;-79
2022/11/30 01:15:04;;;;;;;12.63;8.37;;;6.20;99.90;;;;;;5008106;28;20219;-80
2022/11/30 01:17:29;;;;;;;13.27;8.37;;;6.30;99.90;;;;;;5007480;28;20608;-79
2022/11/30 01:19:55;;;;;;;13.77;7.93;;;6.20;99.90;;;;;;4991277;28;20181;-79
2022/11/30 01:22:21;;;;;;;13.60;8.50;;;6.20;99.90;;;;;;5008012;28;20296;-79
2022/11/30 01:24:46;;;;;;;14.33;8.40;;;6.20;99.90;;;;;;4991549;28;20257;-78
2022/11/30 01:27:12;;;;;;;14.43;8.43;;;6.10;99.90;;;;;;4991411;28;20251;-78
2022/11/30 01:29:37;;;;;;;13.37;8.57;;;6.20;99.90;;;;;;4991234;28;20193;-77
2022/11/30 01:32:03;;;;;;;15.80;9.00;;;6.20;99.90;;;;;;4990948;28;20300;-77
2022/11/30 01:34:29;;;;;;;14.73;8.80;;;6.20;99.90;;;;;;5008862;28;20280;-78
2022/11/30 01:36:55;;;;;;;18.30;10.40;;;6.20;99.90;;;;;;5009296;28;20946;-78
2022/11/30 01:39:20;;;;;;;19.67;9.63;;;6.20;99.90;;;;;;4992203;28;20878;-80
2022/11/30 01:41:46;;;;;;;14.80;9.60;;;6.20;99.90;;;;;;4991835;28;20213;-79
2022/11/30 01:44:14;;;;;;;16.60;9.33;;;6.20;99.90;;;;;;5007859;28;20467;-78
2022/11/30 01:47:01;;;;;;;18.40;9.10;;;6.10;99.90;;;;;;5009317;28;20191;-78
2022/11/30 01:49:28;;;;;;;14.27;9.13;;;6.10;99.90;;;;;;5007894;28;20419;-79
2022/11/30 01:52:23;;;;;;;20.47;9.60;;;6.20;99.90;;;;;;5007871;28;20454;-79
2022/11/30 01:54:51;;;;;;;26.00;10.47;;;6.20;99.90;;;;;;5007833;28;20455;-79
2022/11/30 01:57:42;;;;;;;14.03;9.70;;;6.20;99.90;;;;;;5007360;28;20428;-79
2022/11/30 02:00:11;;;;;;;27.67;9.93;;;6.20;99.90;;;;;;5007430;28;20430;-79
2022/11/30 02:03:11;;;;;;;18.97;9.83;;;6.10;99.90;;;;;;4975429;28;20448;-79
2022/11/30 02:05:39;;;;;;;15.10;9.37;;;6.10;99.90;;;;;;5013446;28;20910;-78
2022/11/30 02:08:06;;;;;;;15.27;9.90;;;6.10;99.90;;;;;;5011499;28;20443;-79
2022/11/30 02:10:35;;;;;;;14.33;8.87;;;6.10;99.90;;;;;;5012600;28;20423;-79
2022/11/30 02:13:09;;;;;;;23.07;10.30;;;6.10;99.90;;;;;;4995351;28;20839;-78
2022/11/30 02:15:58;;;;;;;17.00;9.57;;;6.10;99.90;;;;;;5011023;28;20419;-78
2022/11/30 02:18:54;;;;;;;17.47;9.40;;;6.10;99.90;;;;;;5013292;28;20446;-79
2022/11/30 02:21:37;;;;;;;18.60;9.27;;;6.10;99.90;;;;;;5011998;28;20448;-79
2022/11/30 02:24:35;;;;;;;19.40;9.60;;;6.10;99.90;;;;;;5012679;28;20971;-79
2022/11/30 02:27:14;;;;;;;17.03;9.43;;;6.20;99.90;;;;;;4979058;28;20826;-77
2022/11/30 02:29:42;;;;;;;13.10;8.63;;;6.00;99.90;;;;;;5012753;28;20491;-78
2022/11/30 02:32:27;;;;;;;18.97;8.80;;;6.00;99.90;;;;;;5011568;28;20451;-79
2022/11/30 02:34:56;;;;;;;16.73;8.37;;;6.00;99.90;;;;;;5012745;28;20397;-78
2022/11/30 02:37:24;;;;;;;14.23;9.63;;;6.00;99.90;;;;;;5011064;28;20933;-78
2022/11/30 02:39:49;;;;;;;16.40;9.57;;;6.00;99.90;;;;;;5011382;28;20435;-78
2022/11/30 02:42:15;;;;;;;15.10;8.93;;;6.00;99.90;;;;;;5012221;28;20432;-78
2022/11/30 02:44:43;;;;;;;19.87;10.77;;;6.00;99.90;;;;;;5011123;28;20217;-78
2022/11/30 02:47:32;;;;;;;22.27;10.20;;;6.00;99.90;;;;;;5010734;28;20474;-78
2022/11/30 02:50:06;;;;;;;20.57;11.07;;;5.90;99.90;;;;;;5011904;28;20399;-78
2022/11/30 02:52:32;;;;;;;19.90;10.77;;;5.90;99.90;;;;;;5012084;28;20436;-79
2022/11/30 02:55:09;;;;;;;34.70;11.50;;;6.00;99.90;;;;;;5011848;28;20424;-79
2022/11/30 02:57:35;;;;;;;15.30;10.10;;;6.00;99.90;;;;;;4994742;28;20408;-79
2022/11/30 03:00:05;;;;;;;15.37;9.23;;;6.10;99.90;;;;;;5010316;28;20428;-79
2022/11/30 03:02:31;;;;;;;19.63;10.30;;;6.10;99.90;;;;;;5010181;28;20443;-78
2022/11/30 03:04:57;;;;;;;31.30;12.50;;;6.10;99.90;;;;;;5009811;28;20463;-79
2022/11/30 03:07:23;;;;;;;22.13;10.27;;;6.10;99.90;;;;;;5009783;28;20421;-78
2022/11/30 03:09:49;;;;;;;21.67;10.23;;;6.30;99.90;;;;;;5010051;28;20254;-77
2022/11/30 03:12:14;;;;;;;19.30;10.30;;;6.10;99.90;;;;;;5011015;28;20215;-78
2022/11/30 03:14:40;;;;;;;30.43;11.50;;;6.10;99.90;;;;;;5010192;28;21119;-77
2022/11/30 03:17:06;;;;;;;24.17;10.73;;;6.10;99.90;;;;;;4993002;28;20192;-77
2022/11/30 03:19:32;;;;;;;19.17;10.57;;;6.10;99.90;;;;;;5010600;28;20192;-78
2022/11/30 03:21:57;;;;;;;20.20;10.90;;;6.10;99.90;;;;;;4992827;28;20308;-78
2022/11/30 03:24:23;;;;;;;26.90;11.10;;;6.10;99.90;;;;;;5009371;28;20562;-78
2022/11/30 03:26:49;;;;;;;20.27;10.93;;;6.10;99.90;;;;;;4992885;28;20212;-78
2022/11/30 03:29:16;;;;;;;21.87;11.43;;;6.10;99.90;;;;;;4993208;28;20228;-77
2022/11/30 03:31:41;;;;;;;18.53;10.40;;;6.10;99.90;;;;;;5008960;28;20456;-78
2022/11/30 03:34:07;;;;;;;19.83;10.73;;;6.20;99.90;;;;;;5010502;28;20495;-77
2022/11/30 03:36:33;;;;;;;29.10;10.43;;;6.20;99.90;;;;;;4992914;28;20227;-78
2022/11/30 03:38:58;;;;;;;22.80;11.33;;;6.10;99.90;;;;;;4976548;28;20252;-77
2022/11/30 03:41:24;;;;;;;27.23;11.80;;;6.10;99.90;;;;;;5010441;28;20279;-77
2022/11/30 03:43:50;;;;;;;21.20;10.60;;;6.10;99.90;;;;;;5008983;28;20212;-78
2022/11/30 03:46:15;;;;;;;17.80;9.60;;;6.10;99.90;;;;;;5010536;28;20243;-77
2022/11/30 03:48:41;;;;;;;19.43;9.70;;;6.10;99.90;;;;;;5010693;28;20264;-78
2022/11/30 03:51:08;;;;;;;22.63;10.23;;;6.20;99.90;;;;;;4992797;28;20701;-76
2022/11/30 03:53:34;;;;;;;17.57;10.33;;;6.20;99.90;;;;;;5010480;28;20264;-77
2022/11/30 03:56:03;;;;;;;25.13;9.83;;;6.20;99.90;;;;;;5009171;28;20854;-76
2022/11/30 03:58:29;;;;;;;18.50;9.40;;;6.20;99.90;;;;;;5009009;28;20228;-77
2022/11/30 04:01:08;;;;;;;20.63;10.37;;;6.20;99.90;;;;;;5009013;28;20444;-77
2022/11/30 04:03:35;;;;;;;25.20;10.50;;;6.20;99.90;;;;;;5010295;28;20396;-77
2022/11/30 04:06:01;;;;;;;17.00;10.43;;;6.10;99.90;;;;;;5010792;28;20438;-78
2022/11/30 04:08:27;;;;;;;15.53;9.70;;;6.20;99.90;;;;;;5009350;28;21002;-78
2022/11/30 04:10:54;;;;;;;14.10;8.97;;;6.10;99.90;;;;;;5009267;28;20938;-77
2022/11/30 04:13:21;;;;;;;15.33;9.53;;;6.10;99.90;;;;;;5009266;28;20426;-77
2022/11/30 04:15:47;;;;;;;18.50;9.70;;;6.10;99.90;;;;;;5010694;28;20423;-77
2022/11/30 04:18:14;;;;;;;23.53;13.87;;;6.10;99.90;;;;;;5011850;28;20458;-77
2022/11/30 04:20:40;;;;;;;18.90;12.17;;;6.20;99.90;;;;;;5013114;28;20514;-78
2022/11/30 04:23:07;;;;;;;20.47;11.37;;;6.20;99.90;;;;;;4995481;28;20443;-78
2022/11/30 04:25:33;;;;;;;19.40;10.87;;;6.20;99.90;;;;;;4995003;28;20915;-78
2022/11/30 04:27:58;;;;;;;29.07;11.67;;;6.10;99.90;;;;;;5011114;28;20527;-78
2022/11/30 04:30:24;;;;;;;25.73;10.33;;;6.20;99.90;;;;;;5011404;28;20523;-78
2022/11/30 04:32:49;;;;;;;17.00;10.30;;;6.20;99.90;;;;;;5011303;28;20184;-77
2022/11/30 04:35:15;;;;;;;15.23;10.07;;;6.20;99.90;;;;;;5010119;28;20189;-78
2022/11/30 04:37:40;;;;;;;14.87;9.13;;;6.20;99.90;;;;;;4976671;28;20284;-78
2022/11/30 04:40:07;;;;;;;20.43;10.43;;;6.20;99.90;;;;;;5009301;28;20197;-78
2022/11/30 04:42:32;;;;;;;17.00;9.50;;;6.20;99.90;;;;;;5010083;28;20213;-77
2022/11/30 04:44:58;;;;;;;18.20;9.33;;;6.20;99.90;;;;;;5008223;28;20478;-77
2022/11/30 04:47:23;;;;;;;17.87;9.80;;;6.20;99.90;;;;;;5009150;28;20189;-77
2022/11/30 04:49:49;;;;;;;18.40;10.00;;;6.20;99.90;;;;;;5008139;28;20201;-80
2022/11/30 04:52:15;;;;;;;18.33;10.40;;;6.20;99.90;;;;;;5007973;28;20208;-78
2022/11/30 04:54:40;;;;;;;11.77;7.90;;;6.10;99.90;;;;;;5009104;28;20189;-76
2022/11/30 04:57:06;;;;;;;17.47;9.70;;;6.20;99.90;;;;;;5007708;28;20428;-77
2022/11/30 04:59:32;;;;;;;21.77;9.93;;;6.20;99.90;;;;;;5008996;28;20566;-76
2022/11/30 05:01:57;;;;;;;18.30;9.70;;;6.40;99.90;;;;;;5007659;28;20702;-76
2022/11/30 05:04:23;;;;;;;19.40;10.50;;;6.20;99.90;;;;;;5007505;28;20303;-79
2022/11/30 05:06:49;;;;;;;18.43;10.03;;;6.30;99.90;;;;;;4991725;28;20553;-79
2022/11/30 05:09:14;;;;;;;19.53;10.87;;;6.10;99.90;;;;;;4975233;28;20185;-80
2022/11/30 05:11:40;;;;;;;20.60;10.77;;;6.10;99.90;;;;;;4975110;28;20698;-80
2022/11/30 05:14:05;;;;;;;19.70;11.50;;;6.10;99.90;;;;;;4992410;28;20192;-80
2022/11/30 05:16:31;;;;;;;23.30;12.20;;;6.10;99.90;;;;;;5009589;28;20316;-80
2022/11/30 05:18:57;;;;;;;21.77;10.83;;;6.10;99.90;;;;;;4991686;28;20208;-79
2022/11/30 05:21:22;;;;;;;27.23;12.90;;;6.10;99.90;;;;;;4991274;28;20213;-79
2022/11/30 05:23:48;;;;;;;18.37;11.00;;;6.10;99.90;;;;;;5007799;28;20773;-79
2022/11/30 05:26:14;;;;;;;22.20;13.00;;;6.10;99.90;;;;;;5007040;28;20190;-79
2022/11/30 05:28:40;;;;;;;24.20;14.17;;;6.10;99.90;;;;;;5009387;28;20184;-79
2022/11/30 05:31:06;;;;;;;19.43;10.00;;;6.00;99.90;;;;;;5007514;28;20817;-79
2022/11/30 05:33:32;;;;;;;28.70;12.23;;;6.10;99.90;;;;;;5009135;28;20209;-79
2022/11/30 05:35:58;;;;;;;28.67;12.60;;;6.10;99.90;;;;;;5007004;28;20189;-79
2022/11/30 05:38:23;;;;;;;25.77;12.27;;;5.90;99.90;;;;;;4975740;28;20431;-79
2022/11/30 05:40:49;;;;;;;36.17;13.00;;;6.00;99.90;;;;;;4994396;28;20205;-79
2022/11/30 05:43:15;;;;;;;23.70;10.90;;;6.10;99.90;;;;;;4993912;28;20291;-80
2022/11/30 05:45:40;;;;;;;21.03;11.00;;;6.00;99.90;;;;;;4993949;28;20217;-79
2022/11/30 05:48:06;;;;;;;26.90;12.20;;;6.00;99.90;;;;;;4977658;28;20532;-79
2022/11/30 05:50:32;;;;;;;23.63;13.17;;;6.10;99.90;;;;;;4993815;28;20186;-79
2022/11/30 05:52:59;;;;;;;20.90;12.27;;;6.00;99.90;;;;;;5010320;28;20192;-79
2022/11/30 05:55:26;;;;;;;22.73;11.83;;;6.00;99.90;;;;;;4994191;28;20275;-79
2022/11/30 05:57:52;;;;;;;18.70;11.80;;;6.00;99.90;;;;;;4977780;28;20529;-82
2022/11/30 06:00:19;;;;;;;23.23;12.60;;;6.00;99.90;;;;;;5013049;28;20952;-79
2022/11/30 06:02:44;;;;;;;21.80;11.93;;;6.00;99.90;;;;;;5010715;28;20687;-79
2022/11/30 06:05:11;;;;;;;22.90;11.57;;;6.00;99.90;;;;;;4978007;28;20463;-79
2022/11/30 06:07:36;;;;;;;19.27;12.07;;;6.00;99.90;;;;;;5011463;28;20323;-81
2022/11/30 06:10:03;;;;;;;22.27;12.33;;;5.90;99.90;;;;;;4993432;28;20587;-80
2022/11/30 06:12:28;;;;;;;19.93;12.03;;;5.90;99.90;;;;;;5009894;28;20205;-80
2022/11/30 06:14:54;;;;;;;25.00;12.37;;;5.90;99.90;;;;;;4993211;28;20818;-81
2022/11/30 06:17:19;;;;;;;21.40;12.60;;;5.80;99.90;;;;;;5009471;28;20189;-80
2022/11/30 06:19:45;;;;;;;23.00;12.57;;;5.80;99.90;;;;;;4993264;28;20193;-80
2022/11/30 06:22:11;;;;;;;22.10;12.17;;;5.80;99.90;;;;;;4993204;28;20278;-80
2022/11/30 06:24:36;;;;;;;23.13;14.50;;;5.80;99.90;;;;;;5009629;28;20224;-81
2022/11/30 06:27:02;;;;;;;24.40;14.30;;;6.00;99.90;;;;;;5009603;28;20643;-80
2022/11/30 06:29:27;;;;;;;18.93;10.73;;;5.80;99.90;;;;;;4993132;28;20224;-83
2022/11/30 06:31:53;;;;;;;24.17;13.00;;;5.70;99.90;;;;;;4993356;28;20800;-80
2022/11/30 06:34:19;;;;;;;22.30;11.90;;;5.70;99.90;;;;;;4993467;28;20317;-82
2022/11/30 06:36:44;;;;;;;19.30;10.90;;;5.70;99.90;;;;;;4993399;28;20195;-80
2022/11/30 06:39:11;;;;;;;24.93;12.33;;;5.70;99.90;;;;;;4977404;28;20327;-80
2022/11/30 06:41:37;;;;;;;26.57;12.20;;;5.60;99.90;;;;;;4977785;28;20209;-81
2022/11/30 06:44:09;;;;;;;31.47;14.10;;;5.50;99.90;;;;;;4994167;28;20847;-80
2022/11/30 06:46:36;;;;;;;32.40;12.90;;;5.50;99.90;;;;;;5009917;28;20427;-81
2022/11/30 06:49:01;;;;;;;27.33;12.50;;;5.40;99.90;;;;;;5012271;28;20776;-82
2022/11/30 06:51:27;;;;;;;28.90;13.67;;;5.30;99.90;;;;;;5010346;28;20436;-82
2022/11/30 06:53:52;;;;;;;25.40;12.83;;;5.20;99.90;;;;;;5010110;28;20196;-81
2022/11/30 06:56:18;;;;;;;29.80;12.67;;;5.10;99.90;;;;;;4994155;28;20197;-80
2022/11/30 06:58:44;;;;;;;26.37;13.10;;;5.10;99.90;;;;;;4977461;28;20189;-82
2022/11/30 07:01:12;;;;;;;26.07;12.53;;;5.00;99.90;;;;;;4977210;28;20212;-81
2022/11/30 07:03:38;;;;;;;27.43;13.03;;;5.00;99.90;;;;;;4977871;28;20192;-81
2022/11/30 07:06:09;;;;;;;24.40;11.33;;;5.00;99.90;;;;;;5009672;28;20838;-82
2022/11/30 07:08:35;;;;;;;26.40;13.25;;;5.00;99.90;;;;;;5011310;28;20442;-82
2022/11/30 07:11:00;;;;;;;25.97;11.90;;;5.00;99.90;;;;;;4993135;28;20212;-80
2022/11/30 07:13:26;;;;;;;22.70;11.23;;;5.00;99.90;;;;;;5009155;28;20185;-80
2022/11/30 07:15:52;;;;;;;26.87;12.33;;;5.00;99.90;;;;;;4993371;28;20562;-80
2022/11/30 07:18:17;;;;;;;27.27;12.73;;;5.00;99.90;;;;;;4993664;28;20204;-80
2022/11/30 07:20:43;;;;;;;27.93;12.00;;;5.00;99.90;;;;;;4993325;28;20239;-80
2022/11/30 07:26:08;;;;;;;24.40;11.63;;;5.00;99.90;;;;;;5009850;28;20265;-83
2022/11/30 07:28:35;;;;;;;29.20;12.97;;;5.00;99.90;;;;;;5009351;28;20423;-82
2022/11/30 07:31:11;;;;;;;27.42;12.77;;;5.00;99.90;;;;;;5010928;28;20462;-81
2022/11/30 07:33:36;;;;;;;23.90;11.80;;;5.00;99.90;;;;;;5010642;28;20200;-83
2022/11/30 07:36:02;;;;;;;33.73;15.23;;;5.10;99.90;;;;;;4976171;28;20455;-82
2022/11/30 07:38:28;;;;;;;33.90;16.60;;;4.90;99.90;;;;;;5008485;28;20192;-82
2022/11/30 07:40:53;;;;;;;31.70;16.73;;;4.90;99.90;;;;;;4976186;28;20212;-82
2022/11/30 07:43:19;;;;;;;25.40;12.90;;;4.90;99.90;;;;;;4976273;28;20191;-83
2022/11/30 07:45:50;;;;;;;22.83;11.40;;;4.90;99.90;;;;;;4976168;28;20311;-81
2022/11/30 07:48:16;;;;;;;25.60;14.33;;;5.10;99.90;;;;;;5008469;28;20185;-82
2022/11/30 07:50:42;;;;;;;23.77;13.63;;;5.00;99.90;;;;;;4991751;28;20836;-82
2022/11/30 07:53:07;;;;;;;24.27;12.17;;;5.10;99.90;;;;;;5008431;28;20177;-81
2022/11/30 07:55:33;;;;;;;20.50;11.53;;;5.10;99.90;;;;;;4991482;28;20205;-81
2022/11/30 07:57:58;;;;;;;16.50;9.53;;;5.20;99.90;;;;;;4975402;28;20192;-81
2022/11/30 08:00:24;;;;;;;16.13;8.23;;;5.20;99.90;;;;;;4975150;28;20192;-83
2022/11/30 08:02:50;;;;;;;16.00;9.00;;;5.40;99.90;;;;;;5008432;28;20183;-81
2022/11/30 08:05:16;;;;;;;17.93;9.83;;;5.50;99.90;;;;;;5007512;28;20701;-81
2022/11/30 08:07:42;;;;;;;22.20;10.93;;;5.50;99.90;;;;;;4975279;28;20428;-81
2022/11/30 08:10:08;;;;;;;14.93;8.93;;;5.50;99.90;;;;;;4975232;28;20431;-81
2022/11/30 08:12:33;;;;;;;21.40;10.00;;;5.50;99.90;;;;;;5008663;28;20296;-83
2022/11/30 08:14:59;;;;;;;18.33;10.30;;;5.50;99.90;;;;;;4991976;28;20515;-82
2022/11/30 08:17:25;;;;;;;21.57;11.23;;;5.60;99.90;;;;;;5008176;28;20200;-82
2022/11/30 08:19:50;;;;;;;17.57;10.27;;;5.60;99.90;;;;;;4991950;28;20186;-84
2022/11/30 08:22:16;;;;;;;21.77;11.57;;;5.60;99.90;;;;;;4975718;28;20216;-81
2022/11/30 08:24:41;;;;;;;20.90;10.40;;;5.70;99.90;;;;;;4975906;28;20221;-82
2022/11/30 08:27:07;;;;;;;20.53;11.50;;;5.70;99.90;;;;;;4992827;28;20552;-83
2022/11/30 08:29:32;;;;;;;22.97;11.27;;;5.60;99.90;;;;;;4975961;28;20196;-83
2022/11/30 08:31:58;;;;;;;19.77;11.40;;;5.60;99.90;;;;;;4976001;28;20251;-82
2022/11/30 08:34:25;;;;;;;23.87;12.70;;;5.80;99.90;;;;;;5008358;28;20189;-82
2022/11/30 08:36:51;;;;;;;24.93;14.23;;;5.80;99.90;;;;;;4976251;28;20246;-83
2022/11/30 08:39:17;;;;;;;26.93;14.00;;;5.80;99.90;;;;;;4992139;28;20432;-84
2022/11/30 08:41:42;;;;;;;24.10;13.13;;;6.10;99.90;;;;;;4991880;28;20219;-82
2022/11/30 08:44:08;;;;;;;20.33;11.43;;;5.80;99.90;;;;;;4991787;28;20845;-81
2022/11/30 08:46:35;;;;;;;18.60;10.07;;;5.90;99.90;;;;;;4991347;28;20196;-83
2022/11/30 08:49:01;;;;;;;17.60;11.23;;;6.00;99.90;;;;;;5008265;28;20253;-84
2022/11/30 08:51:26;;;;;;;26.53;15.77;;;6.00;99.90;;;;;;4975566;28;20539;-82
2022/11/30 08:53:52;;;;;;;29.43;15.57;;;6.10;99.90;;;;;;4992334;28;20281;-82
2022/11/30 08:56:20;;;;;;;31.23;16.37;;;6.10;99.90;;;;;;4976154;28;20985;-81
2022/11/30 08:58:46;;;;;;;39.77;20.50;;;6.20;99.90;;;;;;5009710;28;20637;-82
2022/11/30 09:01:12;;;;;;;40.50;20.80;;;6.20;99.90;;;;;;5007872;28;20953;-82
2022/11/30 09:03:39;;;;;;;30.03;16.77;;;6.20;99.90;;;;;;5007718;28;20424;-83
2022/11/30 09:06:13;;;;;;;31.77;16.80;;;6.40;99.90;;;;;;5009004;28;20871;-81
2022/11/30 09:08:41;;;;;;;31.20;14.23;;;6.20;99.90;;;;;;5007609;28;20419;-82
2022/11/30 09:11:16;;;;;;;25.80;15.00;;;6.20;99.90;;;;;;5007584;28;20444;-82
2022/11/30 09:13:42;;;;;;;22.10;12.33;;;6.50;99.90;;;;;;4979598;28;20446;-83
2022/11/30 09:16:09;;;;;;;22.87;14.63;;;6.30;99.90;;;;;;4995472;28;20428;-81
2022/11/30 09:18:35;;;;;;;25.83;13.80;;;6.30;99.90;;;;;;5011094;28;20777;-81
2022/11/30 09:21:03;;;;;;;31.47;14.17;;;6.40;99.90;;;;;;5011111;28;20456;-82
2022/11/30 09:23:29;;;;;;;32.10;15.07;;;6.40;99.90;;;;;;4994593;28;20424;-83
2022/11/30 09:25:56;;;;;;;31.43;14.27;;;6.40;99.90;;;;;;4995217;28;20622;-82
2022/11/30 09:28:21;;;;;;;21.67;12.87;;;6.40;99.90;;;;;;5011745;28;20214;-82
2022/11/30 09:30:47;;;;;;;24.47;13.53;;;6.60;99.90;;;;;;5011764;28;20466;-81
2022/11/30 09:33:13;;;;;;;26.73;12.90;;;6.30;99.90;;;;;;4979136;28;20569;-83
2022/11/30 09:35:38;;;;;;;25.80;12.50;;;6.50;99.90;;;;;;4994771;28;20199;-80
2022/11/30 09:38:04;;;;;;;21.77;11.90;;;6.60;99.90;;;;;;4979703;28;20193;-83
2022/11/30 09:40:30;;;;;;;24.37;12.07;;;6.60;99.90;;;;;;4994471;28;20196;-82
2022/11/30 09:43:02;;;;;;;21.80;12.47;;;6.60;99.90;;;;;;5011233;28;20562;-82
2022/11/30 09:45:30;;;;;;;23.50;13.30;;;6.50;99.90;;;;;;5010686;28;20842;-82
2022/11/30 09:48:26;;;;;;;23.10;11.57;;;6.60;99.90;;;;;;5011491;28;20431;-82
2022/11/30 09:50:53;;;;;;;23.00;12.93;;;6.70;99.90;;;;;;5011767;28;20450;-81
2022/11/30 09:53:39;;;;;;;24.20;12.30;;;6.80;99.90;;;;;;4978822;28;20527;-82
2022/11/30 09:56:29;;;;;;;25.07;11.80;;;6.80;99.90;;;;;;5010875;28;20514;-82
2022/11/30 09:59:03;;;;;;;24.23;13.43;;;6.80;99.90;;;;;;5011252;28;20427;-82
2022/11/30 10:01:29;;;;;;;19.93;11.37;;;6.90;99.90;;;;;;5010855;28;20436;-82
2022/11/30 10:03:57;;;;;;;17.70;11.03;;;6.80;99.90;;;;;;5010716;28;20464;-82
2022/11/30 10:06:47;;;;;;;18.37;10.57;;;6.90;99.90;;;;;;4978733;28;20434;-82
2022/11/30 10:09:31;;;;;;;24.50;11.43;;;6.80;99.90;;;;;;5010562;28;20450;-82
2022/11/30 10:12:32;;;;;;;18.03;10.90;;;6.90;99.90;;;;;;5010781;28;20471;-83
2022/11/30 10:15:01;;;;;;;20.80;10.80;;;6.80;99.90;;;;;;5010450;28;20443;-81
2022/11/30 10:17:44;;;;;;;21.07;12.40;;;6.90;99.90;;;;;;5011920;28;20809;-81
2022/11/30 10:20:16;;;;;;;21.17;11.80;;;6.80;99.90;;;;;;5011775;28;20957;-81
2022/11/30 10:22:55;;;;;;;21.10;11.77;;;6.80;99.90;;;;;;5028318;28;20432;-79
2022/11/30 10:25:31;;;;;;;24.17;11.53;;;6.70;99.90;;;;;;5035404;28;20584;-79
2022/11/30 10:28:37;;;;;;;21.90;11.80;;;6.60;99.90;;;;;;5037086;28;20420;-78
2022/11/30 10:31:04;;;;;;;24.27;13.23;;;6.70;99.90;;;;;;5027117;28;20554;-81
2022/11/30 10:33:41;;;;;;;28.17;13.70;;;6.70;99.90;;;;;;5011900;28;21037;-81
2022/11/30 10:36:39;;;;;;;24.83;13.63;;;6.70;99.90;;;;;;5010784;28;20431;-82
2022/11/30 10:39:20;;;;;;;26.07;13.27;;;6.70;99.90;;;;;;5009214;28;20443;-81
2022/11/30 10:41:52;;;;;;;25.23;13.30;;;6.60;99.90;;;;;;4993483;28;20452;-83
2022/11/30 10:44:26;;;;;;;28.70;15.00;;;6.60;99.90;;;;;;5011350;28;20543;-82
2022/11/30 10:47:18;;;;;;;21.07;13.00;;;6.60;99.90;;;;;;4994549;28;20424;-82
2022/11/30 10:49:50;;;;;;;23.00;13.60;;;6.70;99.90;;;;;;5009282;28;20424;-82
2022/11/30 10:52:27;;;;;;;26.37;14.63;;;6.60;99.90;;;;;;5008822;28;20475;-82
2022/11/30 10:54:55;;;;;;;31.43;16.50;;;6.70;99.90;;;;;;4992980;28;20519;-82
2022/11/30 10:57:23;;;;;;;27.40;14.33;;;6.70;99.90;;;;;;4976914;28;20463;-83
2022/11/30 10:59:52;;;;;;;30.20;15.57;;;6.70;99.90;;;;;;4993009;28;20428;-83
2022/11/30 11:02:39;;;;;;;30.40;15.40;;;6.70;99.90;;;;;;5010518;28;20497;-82
2022/11/30 11:05:20;;;;;;;27.87;15.40;;;6.70;99.90;;;;;;5009228;28;20497;-83
2022/11/30 11:07:50;;;;;;;25.57;14.30;;;6.70;99.90;;;;;;5012078;28;20424;-83
2022/11/30 11:10:24;;;;;;;26.77;14.73;;;6.70;99.90;;;;;;5011711;28;20519;-83
2022/11/30 11:12:52;;;;;;;28.50;15.93;;;6.70;99.90;;;;;;5008663;28;20443;-83
2022/11/30 11:15:25;;;;;;;26.80;15.60;;;6.80;99.90;;;;;;4993542;28;20429;-83
2022/11/30 11:17:51;;;;;;;27.83;16.03;;;6.80;99.90;;;;;;5009959;28;20455;-83
2022/11/30 11:20:33;;;;;;;28.30;16.50;;;6.80;99.90;;;;;;4994313;28;20456;-83
2022/11/30 11:23:00;;;;;;;32.53;18.07;;;6.80;99.90;;;;;;5009986;28;20435;-83
2022/11/30 11:25:36;;;;;;;30.43;16.90;;;6.80;99.90;;;;;;4992671;28;20553;-82
2022/11/30 11:28:21;;;;;;;26.23;15.03;;;6.90;99.90;;;;;;4976114;28;20526;-82
2022/11/30 11:30:47;;;;;;;26.30;15.10;;;7.00;99.90;;;;;;4977212;28;20462;-84
2022/11/30 11:33:12;;;;;;;28.17;15.73;;;7.10;99.90;;;;;;4976592;28;20428;-81
2022/11/30 11:35:40;;;;;;;28.63;14.87;;;7.20;99.90;;;;;;5008036;28;20670;-82
2022/11/30 11:38:24;;;;;;;26.63;16.20;;;7.20;99.90;;;;;;5008601;28;20654;-83
2022/11/30 11:41:16;;;;;;;27.67;15.10;;;7.30;99.90;;;;;;5009376;28;20446;-82
2022/11/30 11:44:04;;;;;;;25.70;14.00;;;7.30;99.90;;;;;;5001884;28;20420;-83
2022/11/30 11:46:33;;;;;;;24.80;13.47;;;7.20;99.90;;;;;;4993469;28;20930;-82
2022/11/30 11:49:03;;;;;;;25.60;14.40;;;7.10;99.90;;;;;;5010358;28;20418;-81
2022/11/30 11:51:39;;;;;;;26.73;15.00;;;7.10;99.90;;;;;;4992156;28;20482;-82
2022/11/30 11:54:42;;;;;;;23.47;12.97;;;7.20;99.90;;;;;;5009118;28;20848;-81
2022/11/30 11:57:16;;;;;;;24.10;14.00;;;7.20;99.90;;;;;;5008837;28;20420;-81
2022/11/30 11:59:49;;;;;;;28.80;13.50;;;7.10;99.90;;;;;;5008549;28;20416;-82
2022/11/30 12:02:27;;;;;;;26.80;14.27;;;7.10;99.90;;;;;;5009891;28;20450;-82
2022/11/30 12:05:02;;;;;;;21.07;12.10;;;7.10;99.90;;;;;;5008390;28;21068;-81
2022/11/30 12:07:41;;;;;;;20.70;11.90;;;7.10;99.90;;;;;;5008285;28;20408;-81
2022/11/30 12:10:43;;;;;;;18.53;12.20;;;7.00;99.90;;;;;;5008106;28;20424;-82
2022/11/30 12:13:16;;;;;;;22.73;12.43;;;7.00;99.90;;;;;;5009991;28;20474;-83
2022/11/30 12:15:47;;;;;;;21.33;13.50;;;6.90;99.90;;;;;;5008074;28;20426;-81
2022/11/30 12:18:28;;;;;;;28.10;13.90;;;6.80;99.90;;;;;;5007545;28;20451;-82
2022/11/30 12:21:06;;;;;;;21.97;13.20;;;6.70;99.90;;;;;;4991873;28;20456;-82
2022/11/30 12:23:56;;;;;;;21.40;13.57;;;6.60;99.90;;;;;;5007669;28;20416;-82
2022/11/30 12:26:28;;;;;;;24.30;14.37;;;6.60;99.90;;;;;;5007314;28;20436;-82
2022/11/30 12:29:23;;;;;;;32.63;16.53;;;6.50;99.90;;;;;;5007156;28;20409;-83
2022/11/30 12:32:00;;;;;;;26.37;15.00;;;6.50;99.90;;;;;;5006831;28;20435;-82
2022/11/30 12:34:41;;;;;;;27.13;14.60;;;6.50;99.90;;;;;;5008447;28;20423;-83
2022/11/30 12:37:13;;;;;;;25.20;13.93;;;6.50;99.90;;;;;;5007402;28;20975;-83
2022/11/30 12:40:14;;;;;;;27.30;13.97;;;6.50;99.90;;;;;;5008645;28;20464;-82
2022/11/30 12:43:03;;;;;;;25.80;14.03;;;6.40;99.90;;;;;;5007691;28;20501;-81
2022/11/30 12:45:28;;;;;;;22.03;12.90;;;6.40;99.90;;;;;;5009515;28;20445;-83
2022/11/30 12:48:12;;;;;;;24.70;13.27;;;6.40;99.90;;;;;;5009159;28;20424;-82
2022/11/30 12:51:05;;;;;;;22.63;14.07;;;6.30;99.90;;;;;;5009428;28;20165;-83
2022/11/30 12:54:07;;;;;;;24.03;14.27;;;6.30;99.90;;;;;;5008117;28;20428;-82
2022/11/30 12:56:55;;;;;;;25.23;14.83;;;6.30;99.90;;;;;;4975518;28;20423;-83